Local Weather Data

Local Time:

Forecast for Sydney, NSW issued on 2018-09-26 at 02:45
Date 2018-09-26 Max 17 °C Showers.
Weather data from Terrey Hills NSW Lat: -33.7 Lon: 151.2
Date/Time Temp °C Humidity
%
Wind km/h Rain since 9.00am
mm
Actual Apparent Dew Point Delta Gust Speed Dir
26/12:30pm 13.2 11.9 12.4 0.4 95 15 11 NNW 2.6
26/12:00pm 12.5 11.1 12.2 0.2 98 19 11 N 2.6
26/11:30am 11.8 11 11.8 0 100 11 7 NNW 2.6
26/11:00am 11.9 11.4 11.9 0 100 13 6 NW 2.4
26/10:30am 11.3 9.6 11.3 0 100 17 11 NNW 1.8
26/10:00am 11.4 10.7 11.4 0 100 7 6 NNW 0.8
26/09:30am 10.7 9.8 10.7 0 100 9 6 W 0.6
26/09:00am 10.6 10.1 10.6 0 100 9 4 W 5.6
26/08:30am 10 8.9 10 0 100 9 6 W 4.4
26/08:00am 10.6 10.4 10.6 0 100 9 2 SW 3.0
26/07:30am 10.4 9.4 10.4 0 100 7 6 WNW 2.6
26/07:00am 11.1 10.3 11.1 0 100 9 6 NW 2.4
26/06:30am 11 9.6 11 0 100 11 9 N 2.2
26/06:00am 10.6 9.1 9 0.8 90 11 7 WSW 1.2
26/05:30am 11.5 10 8.5 1.5 82 9 6 NNW 1.2
26/05:00am 12.3 10.4 9 1.7 80 13 9 N 1.2
26/04:30am 12.4 10.9 9.2 1.6 81 11 7 NNE 1.2
26/04:00am 10.6 9.2 8.7 0.9 88 7 6 N 1.2
26/03:30am 9.7 8.1 8.1 0.8 90 6 6 N 1.2
26/03:00am 12.4 10.8 8.7 1.9 78 11 7 N 1.2
26/02:30am 12 10.4 8.7 1.7 80 9 7 N 1.2
26/02:00am 12.4 10.8 8.7 1.9 78 11 7 N 1.2
26/01:30am 12.2 11.1 8.3 1.9 77 6 4 NW 1.2
26/01:00am 12.8 11.1 8.5 2.2 75 11 7 N 1.2
26/12:30am 12.6 11.5 8.3 2.2 75 6 4 NNW 1.2
26/12:00am 12.5 11.1 8.8 1.9 78 9 6 NNE 1.2
25/11:30pm 12 11.2 8.3 1.8 78 6 2 NNE 1.2
25/11:00pm 12.2 11.1 8.5 1.9 78 6 4 NE 1.2
25/10:30pm 12.2 10.7 8.3 1.9 77 13 6 NE 1.2
25/10:00pm 12.6 10.9 8.5 2.1 76 17 7 NE 1.2
25/09:30pm 12.8 11.4 8.7 2.1 76 11 6 NE 1.2
25/09:00pm 12.8 10.5 8.9 2 77 20 11 ENE 1.2
25/08:30pm 12.3 10.4 9 1.7 80 15 9 ENE 1.2
25/08:00pm 11.4 9.9 9 1.2 85 15 7 NE 1.2
25/07:30pm 11.5 9.2 8.9 1.3 84 15 11 ENE 1.2
25/07:00pm 11.4 9 8.6 1.4 83 15 11 ENE 1.2
25/06:30pm 11.5 9.5 8.7 1.4 83 15 9 ENE 1.2
25/06:00pm 12.1 10.2 8.9 1.6 81 13 9 ENE 1.2
25/05:30pm 12.7 10.1 9.3 1.7 80 22 13 ENE 1.2
25/05:00pm 13.2 10.2 9.3 2 77 22 15 ENE 1.2
25/04:30pm 13.6 11 9.3 2.2 75 22 13 E 1.2
25/04:00pm 14 11.2 8.4 2.8 69 20 13 E 1.2
25/03:30pm 14.1 11.4 9.1 2.6 72 22 13 E 1.2
25/03:00pm 14.7 12.5 10.9 2 78 19 13 E 1.2
25/02:30pm 13.8 11.6 10.8 1.6 82 22 13 E 1.2
25/02:00pm 13.9 12.2 11.1 1.5 83 20 11 E 1.2
25/01:30pm 13 12.2 11.1 1 88 9 6 SE 1.0
25/01:00pm 13.1 12.2 10.5 1.4 84 13 6 ENE 0.0
25/12:30pm 14.1 12.6 8.3 2.9 68 11 6 E 0.0
25/12:00pm 14.3 12 7.6 3.3 64 17 9 ENE 0.0
25/11:30am 14.6 11.4 6.9 3.8 60 22 13 ENE 0.0
25/11:00am 15.9 13.6 9.1 3.5 64 20 11 ENE 0.0
25/10:30am 14.2 12.8 9.4 2.5 73 13 7 ESE 0.0
25/10:00am 14.2 13.1 9.8 2.3 75 11 6 ESE 0.0
25/09:30am 14.7 13.6 10.1 2.4 74 17 6 ESE 0.0
25/09:00am 12.9 11.2 9.7 1.7 81 13 9 SSE 1.0
25/08:30am 12.4 11.3 10.5 1 88 13 7 SSE 1.0
25/08:00am 12.2 12.1 10.9 0.7 92 4 2 W 1.0
25/07:30am 10.8 10.2 10.3 0.3 97 6 4 W 1.0
25/07:00am 9.7 8.3 9.7 0 100 9 7 WNW 1.0
25/06:30am 8.9 7.5 8.9 0 100 7 6 WNW 1.0
25/06:00am 8.7 7.3 8.7 0 100 7 6 WNW 1.0
25/05:30am 8.5 6.8 8.5 0 100 9 7 W 1.0
25/05:00am 8.6 7.1 8.6 0 100 7 6 W 1.0
25/04:30am 8.7 7.3 8.7 0 100 7 6 WNW 1.0
25/04:00am 8.8 7.4 8.8 0 100 7 6 W 1.0
25/03:30am 8.6 7 8.6 0 100 11 7 W 0.8
25/03:00am 8.7 7.1 8.7 0 100 9 7 W 0.8
25/02:30am 8.9 7.3 8.9 0 100 9 7 W 0.8
25/02:00am 9.2 7.9 9.2 0 100 9 6 W 0.8
25/01:30am 9.3 8 9.3 0 100 7 6 W 0.8
25/01:00am 9.4 8.2 9.4 0 100 7 6 WNW 0.8
25/12:30am 9.7 8.5 9.7 0 100 9 6 W 0.8
25/12:00am 9.9 8.8 9.9 0 100 7 6 W 0.6
24/11:30pm 10.2 9.9 10.2 0 100 4 2 WSW 0.4
24/11:00pm 10.4 10.2 10.4 0 100 4 2 WSW 0.0
24/10:30pm 10.5 10.3 10.3 0.1 99 6 2 NW 0.0
24/10:00pm 10.6 9.5 10.1 0.3 97 9 6 SW 0.0
24/09:30pm 11 9.7 10.1 0.5 94 13 7 SW 0.0
24/09:00pm 11.4 10.2 9.7 0.9 89 11 6 WSW 0.0
24/08:30pm 11.9 10.5 8.9 1.5 82 9 6 S 0.0
24/08:00pm 11.8 9.7 9.7 1.1 87 19 11 SSE 0.0
24/07:30pm 11.2 10.5 10.1 0.6 93 11 4 SSE 0.0
24/07:00pm 11.8 10.4 9.7 1.1 87 13 7 S 0.0
24/06:30pm 11.7 10.4 9.8 1 88 13 7 S 0.0
24/06:00pm 11.5 10.4 10.7 0.4 95 13 7 ESE 0.0
24/05:30pm 12 10.1 10.4 0.8 90 24 11 SSE 0.0
24/05:00pm 12.1 9.8 10.3 0.9 89 26 13 SSE 0.0
24/04:30pm 12.5 9.8 10.2 1.2 86 30 15 S 0.0
24/04:00pm 12.8 11.2 10.3 1.3 85 22 9 SSE 0.0
24/03:30pm 12 9.7 10.4 0.8 90 24 13 S 0.0
24/03:00pm 12.5 10.3 10.7 0.9 89 22 13 SE 0.0
24/02:30pm 13.4 11.5 10.6 1.5 83 20 11 S 0.0
24/02:00pm 13.3 10.6 9 2.2 75 24 13 SSE 0.0
24/01:30pm 13.3 11.5 9.5 2 78 20 9 SSE 0.0
24/01:00pm 13.3 11.3 10.1 1.7 81 19 11 SE 0.0
24/12:30pm 12.9 10.5 9.9 1.6 82 24 13 SE 0.0
24/12:00pm 13 10.2 10 1.6 82 28 15 S 0.0
24/11:30am 13.7 11.3 10.1 1.9 79 20 13 S 0.0
24/11:00am 13.3 9.7 9.7 1.9 79 33 19 S 0.0
24/10:30am 12.9 10.5 10.1 1.5 83 20 13 SSW 0.0
24/10:00am 11.8 8 9.2 1.3 84 32 19 SSW 0.0
24/09:30am 11.2 7 8.4 1.4 83 32 20 SSW 0.0
24/09:00am 11.1 7.7 9.2 1 88 35 17 SSW 5.0
24/08:30am 9.8 6.5 9.7 0.1 99 30 17 SSW 4.8
24/08:00am 11.4 8.6 8.6 1.4 83 22 13 SSW 4.8
24/07:30am 11 8.5 8.4 1.3 84 20 11 SSW 4.8
24/07:00am 10.7 7.4 8.1 1.3 84 26 15 SW 4.8
24/06:30am 10.4 6.4 8.2 1.1 86 30 19 SSW 4.8
24/06:00am 10.4 7.2 8.5 0.9 88 26 15 SSW 4.8
24/05:30am 10.7 7.6 9 0.9 89 24 15 SW 4.8
24/05:00am 10.9 7.9 9.3 0.8 90 28 15 SSW 4.8
24/04:30am 10.9 8.4 9.7 0.6 92 24 13 SSW 4.8
24/04:00am 11 8.9 9.8 0.6 92 19 11 SSW 4.8
24/03:30am 11.2 8.3 9.8 0.7 91 26 15 S 4.8
24/03:00am 11.2 8.4 10 0.6 92 26 15 S 4.8
24/02:30am 11.4 9.2 9.3 1.1 87 20 11 SSW 4.8
24/02:00am 11.6 8.5 9 1.3 84 32 15 S 4.8
24/01:30am 11.7 8.4 9.4 1.2 86 30 17 S 4.8
24/01:00am 11.4 8.6 10.1 0.7 92 30 15 S 4.8
24/12:30am 11 8.8 10.7 0.2 98 24 13 S 4.8
24/12:00am 10.9 8.7 10.9 0 100 24 13 S 4.8
23/11:30pm 10.9 8.4 10.9 0 100 32 15 SSE 4.8
23/11:00pm 11.5 9.1 11.5 0 100 30 15 S 4.4
23/10:30pm 11.9 10.4 11.9 0 100 24 11 S 4.2
23/10:00pm 12.4 10.3 12.4 0 100 28 15 SSE 3.8
23/09:30pm 13 11.1 13 0 100 26 15 SSE 3.2
23/09:00pm 14.6 12.7 11.9 1.5 84 24 13 SE 0.0
23/08:30pm 14.5 13.6 11.5 1.6 82 15 7 SE 0.0
23/08:00pm 14.4 13.6 11 1.8 80 13 6 S 0.0
23/07:30pm 14 13.2 11.2 1.5 83 11 6 SSE 0.0
23/07:00pm 14.3 13.6 11.5 1.5 83 11 6 SSE 0.0
23/06:30pm 14.4 12.5 11.7 1.5 84 22 13 SSE 0.0
23/06:00pm 14.4 13.3 11.9 1.4 85 22 9 SE 0.0
23/05:30pm 14.8 12.6 12.1 1.5 84 24 15 SE 0.0
23/05:00pm 15 12.4 12.1 1.6 83 24 17 SE 0.0
23/04:30pm 15.1 13 12.4 1.5 84 24 15 ESE 0.0
23/04:00pm 15.4 13.3 12.5 1.6 83 26 15 ESE 0.0
23/03:30pm 15.5 13.1 12.6 1.6 83 28 17 ESE 0.0
23/03:00pm 16.2 13.9 13.1 1.7 82 26 17 SE 0.0
23/02:30pm 17.1 14.8 13 2.3 77 35 17 SSE 0.0
23/02:00pm 17.3 15.3 12.6 2.6 74 24 15 SE 0.0
23/01:30pm 17.2 15.2 12.7 2.5 75 24 15 SSE 0.0
23/01:00pm 17.8 16.5 13.7 2.3 77 22 13 SE 0.0
";